sensor_id;sensor_type;location;lat;lon;timestamp;P1;durP1;ratioP1;P2;durP2;ratioP2
8825;SDS011;4449;50.872;4.714;2023-03-01T00:01:59;9.87;;;6.60;;
8825;SDS011;4449;50.872;4.714;2023-03-01T00:04:27;9.82;;;7.03;;
8825;SDS011;4449;50.872;4.714;2023-03-01T00:06:55;8.40;;;6.40;;
8825;SDS011;4449;50.872;4.714;2023-03-01T00:09:24;6.97;;;6.17;;
8825;SDS011;4449;50.872;4.714;2023-03-01T00:11:52;13.23;;;6.90;;
8825;SDS011;4449;50.872;4.714;2023-03-01T00:14:20;10.00;;;7.93;;
8825;SDS011;4449;50.872;4.714;2023-03-01T00:16:47;9.20;;;7.40;;
8825;SDS011;4449;50.872;4.714;2023-03-01T00:19:16;9.67;;;6.90;;
8825;SDS011;4449;50.872;4.714;2023-03-01T00:21:44;8.70;;;7.00;;
8825;SDS011;4449;50.872;4.714;2023-03-01T00:24:11;12.43;;;7.83;;
8825;SDS011;4449;50.872;4.714;2023-03-01T00:26:41;8.40;;;6.90;;
8825;SDS011;4449;50.872;4.714;2023-03-01T00:29:08;10.97;;;7.90;;
8825;SDS011;4449;50.872;4.714;2023-03-01T00:31:36;13.60;;;7.83;;
8825;SDS011;4449;50.872;4.714;2023-03-01T00:34:04;8.83;;;7.50;;
8825;SDS011;4449;50.872;4.714;2023-03-01T00:36:33;10.50;;;7.60;;
8825;SDS011;4449;50.872;4.714;2023-03-01T00:39:01;9.37;;;7.73;;
8825;SDS011;4449;50.872;4.714;2023-03-01T00:41:29;12.63;;;8.00;;
8825;SDS011;4449;50.872;4.714;2023-03-01T00:44:00;8.60;;;7.20;;
8825;SDS011;4449;50.872;4.714;2023-03-01T00:46:28;9.97;;;7.20;;
8825;SDS011;4449;50.872;4.714;2023-03-01T00:48:56;9.70;;;7.57;;
8825;SDS011;4449;50.872;4.714;2023-03-01T00:51:27;9.37;;;7.50;;
8825;SDS011;4449;50.872;4.714;2023-03-01T00:53:55;9.03;;;7.43;;
8825;SDS011;4449;50.872;4.714;2023-03-01T00:56:23;8.90;;;6.80;;
8825;SDS011;4449;50.872;4.714;2023-03-01T00:58:51;8.40;;;7.43;;
8825;SDS011;4449;50.872;4.714;2023-03-01T01:01:22;14.73;;;7.53;;
8825;SDS011;4449;50.872;4.714;2023-03-01T01:03:54;12.03;;;7.27;;
8825;SDS011;4449;50.872;4.714;2023-03-01T01:06:23;7.93;;;7.10;;
8825;SDS011;4449;50.872;4.714;2023-03-01T01:08:51;11.57;;;7.20;;
8825;SDS011;4449;50.872;4.714;2023-03-01T01:11:19;9.50;;;7.83;;
8825;SDS011;4449;50.872;4.714;2023-03-01T01:13:48;8.97;;;7.33;;
8825;SDS011;4449;50.872;4.714;2023-03-01T01:16:17;7.97;;;6.63;;
8825;SDS011;4449;50.872;4.714;2023-03-01T01:18:46;10.33;;;7.00;;
8825;SDS011;4449;50.872;4.714;2023-03-01T01:21:15;7.80;;;6.45;;
8825;SDS011;4449;50.872;4.714;2023-03-01T01:23:43;7.90;;;6.67;;
8825;SDS011;4449;50.872;4.714;2023-03-01T01:26:13;10.27;;;7.50;;
8825;SDS011;4449;50.872;4.714;2023-03-01T01:28:41;8.77;;;7.87;;
8825;SDS011;4449;50.872;4.714;2023-03-01T01:31:08;9.80;;;6.57;;
8825;SDS011;4449;50.872;4.714;2023-03-01T01:33:36;8.37;;;6.17;;
8825;SDS011;4449;50.872;4.714;2023-03-01T01:36:06;11.23;;;7.67;;
8825;SDS011;4449;50.872;4.714;2023-03-01T01:38:34;9.70;;;6.60;;
8825;SDS011;4449;50.872;4.714;2023-03-01T01:41:02;7.87;;;6.60;;
8825;SDS011;4449;50.872;4.714;2023-03-01T01:43:31;7.90;;;6.50;;
8825;SDS011;4449;50.872;4.714;2023-03-01T01:46:01;7.97;;;6.10;;
8825;SDS011;4449;50.872;4.714;2023-03-01T01:48:32;7.47;;;6.43;;
8825;SDS011;4449;50.872;4.714;2023-03-01T01:51:07;9.48;;;7.30;;
8825;SDS011;4449;50.872;4.714;2023-03-01T01:53:37;9.63;;;6.90;;
8825;SDS011;4449;50.872;4.714;2023-03-01T01:56:06;10.20;;;6.60;;
8825;SDS011;4449;50.872;4.714;2023-03-01T01:58:34;8.90;;;7.00;;
8825;SDS011;4449;50.872;4.714;2023-03-01T02:01:03;16.02;;;10.57;;
8825;SDS011;4449;50.872;4.714;2023-03-01T02:03:31;8.87;;;7.37;;
8825;SDS011;4449;50.872;4.714;2023-03-01T02:06:03;8.37;;;6.20;;
8825;SDS011;4449;50.872;4.714;2023-03-01T02:08:35;11.43;;;6.90;;
8825;SDS011;4449;50.872;4.714;2023-03-01T02:11:04;6.77;;;6.03;;
8825;SDS011;4449;50.872;4.714;2023-03-01T02:13:33;7.40;;;6.70;;
8825;SDS011;4449;50.872;4.714;2023-03-01T02:16:02;10.47;;;6.60;;
8825;SDS011;4449;50.872;4.714;2023-03-01T02:18:30;8.25;;;6.45;;
8825;SDS011;4449;50.872;4.714;2023-03-01T02:21:04;8.10;;;6.20;;
8825;SDS011;4449;50.872;4.714;2023-03-01T02:23:34;7.10;;;6.50;;
8825;SDS011;4449;50.872;4.714;2023-03-01T02:26:05;8.82;;;6.32;;
8825;SDS011;4449;50.872;4.714;2023-03-01T02:28:35;6.72;;;5.70;;
8825;SDS011;4449;50.872;4.714;2023-03-01T02:31:04;8.70;;;6.80;;
8825;SDS011;4449;50.872;4.714;2023-03-01T02:33:50;8.68;;;6.40;;
8825;SDS011;4449;50.872;4.714;2023-03-01T02:36:19;7.18;;;6.28;;
8825;SDS011;4449;50.872;4.714;2023-03-01T02:38:47;7.03;;;5.70;;
8825;SDS011;4449;50.872;4.714;2023-03-01T02:41:15;13.98;;;6.90;;
8825;SDS011;4449;50.872;4.714;2023-03-01T02:43:45;7.63;;;6.35;;
8825;SDS011;4449;50.872;4.714;2023-03-01T02:46:14;7.40;;;6.68;;
8825;SDS011;4449;50.872;4.714;2023-03-01T02:48:43;7.10;;;6.35;;
8825;SDS011;4449;50.872;4.714;2023-03-01T02:51:14;10.15;;;6.65;;
8825;SDS011;4449;50.872;4.714;2023-03-01T02:53:48;9.90;;;6.25;;
8825;SDS011;4449;50.872;4.714;2023-03-01T02:56:21;7.93;;;7.13;;
8825;SDS011;4449;50.872;4.714;2023-03-01T02:58:50;9.50;;;6.50;;
8825;SDS011;4449;50.872;4.714;2023-03-01T03:01:18;7.93;;;6.53;;
8825;SDS011;4449;50.872;4.714;2023-03-01T03:03:46;7.93;;;6.97;;
8825;SDS011;4449;50.872;4.714;2023-03-01T03:06:13;7.95;;;6.80;;
8825;SDS011;4449;50.872;4.714;2023-03-01T03:08:41;10.85;;;6.43;;
8825;SDS011;4449;50.872;4.714;2023-03-01T03:11:09;7.63;;;6.80;;
8825;SDS011;4449;50.872;4.714;2023-03-01T03:13:37;10.55;;;7.25;;
8825;SDS011;4449;50.872;4.714;2023-03-01T03:16:14;7.75;;;6.57;;
8825;SDS011;4449;50.872;4.714;2023-03-01T03:18:42;9.13;;;7.10;;
8825;SDS011;4449;50.872;4.714;2023-03-01T03:21:10;8.07;;;7.03;;
8825;SDS011;4449;50.872;4.714;2023-03-01T03:23:38;9.40;;;7.45;;
8825;SDS011;4449;50.872;4.714;2023-03-01T03:26:06;7.90;;;7.03;;
8825;SDS011;4449;50.872;4.714;2023-03-01T03:28:34;8.27;;;6.65;;
8825;SDS011;4449;50.872;4.714;2023-03-01T03:31:05;11.27;;;6.72;;
8825;SDS011;4449;50.872;4.714;2023-03-01T03:33:34;8.88;;;7.00;;
8825;SDS011;4449;50.872;4.714;2023-03-01T03:36:03;9.90;;;6.70;;
8825;SDS011;4449;50.872;4.714;2023-03-01T03:38:31;8.63;;;6.78;;
8825;SDS011;4449;50.872;4.714;2023-03-01T03:40:59;8.45;;;6.70;;
8825;SDS011;4449;50.872;4.714;2023-03-01T03:43:27;11.93;;;6.95;;
8825;SDS011;4449;50.872;4.714;2023-03-01T03:45:55;12.00;;;7.00;;
8825;SDS011;4449;50.872;4.714;2023-03-01T03:48:23;7.68;;;6.80;;
8825;SDS011;4449;50.872;4.714;2023-03-01T03:50:54;7.80;;;6.90;;
8825;SDS011;4449;50.872;4.714;2023-03-01T03:53:23;8.93;;;6.55;;
8825;SDS011;4449;50.872;4.714;2023-03-01T03:55:51;7.75;;;6.25;;
8825;SDS011;4449;50.872;4.714;2023-03-01T03:58:19;7.68;;;5.97;;
8825;SDS011;4449;50.872;4.714;2023-03-01T04:00:48;7.95;;;5.97;;
8825;SDS011;4449;50.872;4.714;2023-03-01T04:03:16;9.13;;;6.55;;
8825;SDS011;4449;50.872;4.714;2023-03-01T04:05:45;8.65;;;6.25;;
8825;SDS011;4449;50.872;4.714;2023-03-01T04:08:16;6.95;;;6.28;;
8825;SDS011;4449;50.872;4.714;2023-03-01T04:10:46;10.02;;;6.22;;
8825;SDS011;4449;50.872;4.714;2023-03-01T04:13:15;8.15;;;6.30;;
8825;SDS011;4449;50.872;4.714;2023-03-01T04:15:44;7.32;;;6.10;;
8825;SDS011;4449;50.872;4.714;2023-03-01T04:18:13;11.07;;;6.05;;
8825;SDS011;4449;50.872;4.714;2023-03-01T04:20:42;11.23;;;6.18;;
8825;SDS011;4449;50.872;4.714;2023-03-01T04:23:11;7.28;;;6.18;;
8825;SDS011;4449;50.872;4.714;2023-03-01T04:25:45;7.53;;;6.82;;
8825;SDS011;4449;50.872;4.714;2023-03-01T04:28:15;8.25;;;7.13;;
8825;SDS011;4449;50.872;4.714;2023-03-01T04:30:43;9.63;;;6.65;;
8825;SDS011;4449;50.872;4.714;2023-03-01T04:33:10;11.95;;;6.63;;
8825;SDS011;4449;50.872;4.714;2023-03-01T04:35:38;7.68;;;6.60;;
8825;SDS011;4449;50.872;4.714;2023-03-01T04:38:06;11.85;;;6.28;;
8825;SDS011;4449;50.872;4.714;2023-03-01T04:40:35;9.70;;;7.20;;
8825;SDS011;4449;50.872;4.714;2023-03-01T04:43:04;10.35;;;6.55;;
8825;SDS011;4449;50.872;4.714;2023-03-01T04:45:32;7.05;;;6.35;;
8825;SDS011;4449;50.872;4.714;2023-03-01T04:48:01;9.68;;;7.03;;
8825;SDS011;4449;50.872;4.714;2023-03-01T04:50:29;8.43;;;6.07;;
8825;SDS011;4449;50.872;4.714;2023-03-01T04:52:57;7.65;;;6.43;;
8825;SDS011;4449;50.872;4.714;2023-03-01T04:55:25;8.50;;;6.57;;
8825;SDS011;4449;50.872;4.714;2023-03-01T04:57:53;10.00;;;6.63;;
8825;SDS011;4449;50.872;4.714;2023-03-01T05:00:23;7.25;;;6.47;;
8825;SDS011;4449;50.872;4.714;2023-03-01T05:02:51;7.80;;;6.60;;
8825;SDS011;4449;50.872;4.714;2023-03-01T05:05:22;8.40;;;6.30;;
8825;SDS011;4449;50.872;4.714;2023-03-01T05:07:54;9.10;;;6.82;;
8825;SDS011;4449;50.872;4.714;2023-03-01T05:10:22;10.40;;;6.38;;
8825;SDS011;4449;50.872;4.714;2023-03-01T05:12:50;8.75;;;6.53;;
8825;SDS011;4449;50.872;4.714;2023-03-01T05:15:18;7.70;;;6.57;;
8825;SDS011;4449;50.872;4.714;2023-03-01T05:17:49;7.22;;;6.30;;
8825;SDS011;4449;50.872;4.714;2023-03-01T05:20:17;8.45;;;6.07;;
8825;SDS011;4449;50.872;4.714;2023-03-01T05:22:48;9.10;;;6.60;;
8825;SDS011;4449;50.872;4.714;2023-03-01T05:25:16;7.57;;;6.78;;
8825;SDS011;4449;50.872;4.714;2023-03-01T05:27:44;10.35;;;6.55;;
8825;SDS011;4449;50.872;4.714;2023-03-01T05:30:12;7.55;;;6.75;;
8825;SDS011;4449;50.872;4.714;2023-03-01T05:32:40;7.00;;;6.00;;
8825;SDS011;4449;50.872;4.714;2023-03-01T05:35:11;7.90;;;6.85;;
8825;SDS011;4449;50.872;4.714;2023-03-01T05:37:40;7.82;;;6.35;;
8825;SDS011;4449;50.872;4.714;2023-03-01T05:40:09;9.18;;;6.30;;
8825;SDS011;4449;50.872;4.714;2023-03-01T05:42:42;9.65;;;6.03;;
8825;SDS011;4449;50.872;4.714;2023-03-01T05:45:09;6.72;;;6.00;;
8825;SDS011;4449;50.872;4.714;2023-03-01T05:47:39;8.13;;;6.63;;
8825;SDS011;4449;50.872;4.714;2023-03-01T05:50:11;7.60;;;5.80;;
8825;SDS011;4449;50.872;4.714;2023-03-01T05:52:39;11.70;;;6.47;;
8825;SDS011;4449;50.872;4.714;2023-03-01T05:55:08;8.50;;;6.03;;
8825;SDS011;4449;50.872;4.714;2023-03-01T05:57:35;9.18;;;6.47;;
8825;SDS011;4449;50.872;4.714;2023-03-01T06:00:04;9.00;;;6.07;;
8825;SDS011;4449;50.872;4.714;2023-03-01T06:02:32;9.95;;;6.60;;
8825;SDS011;4449;50.872;4.714;2023-03-01T06:05:00;12.23;;;6.78;;
8825;SDS011;4449;50.872;4.714;2023-03-01T06:07:29;9.70;;;6.32;;
8825;SDS011;4449;50.872;4.714;2023-03-01T06:09:57;8.75;;;6.85;;
8825;SDS011;4449;50.872;4.714;2023-03-01T06:12:25;8.05;;;7.00;;
8825;SDS011;4449;50.872;4.714;2023-03-01T06:14:53;8.07;;;6.30;;
8825;SDS011;4449;50.872;4.714;2023-03-01T06:17:20;9.80;;;7.40;;
8825;SDS011;4449;50.872;4.714;2023-03-01T06:19:49;10.20;;;6.93;;
8825;SDS011;4449;50.872;4.714;2023-03-01T06:22:16;11.50;;;7.20;;
8825;SDS011;4449;50.872;4.714;2023-03-01T06:24:46;12.05;;;6.68;;
8825;SDS011;4449;50.872;4.714;2023-03-01T06:27:14;10.52;;;6.22;;
8825;SDS011;4449;50.872;4.714;2023-03-01T06:29:41;11.75;;;7.10;;
8825;SDS011;4449;50.872;4.714;2023-03-01T06:32:09;7.60;;;6.25;;
8825;SDS011;4449;50.872;4.714;2023-03-01T06:34:37;9.00;;;6.72;;
8825;SDS011;4449;50.872;4.714;2023-03-01T06:37:05;9.55;;;6.53;;
8825;SDS011;4449;50.872;4.714;2023-03-01T06:39:33;8.82;;;6.63;;
8825;SDS011;4449;50.872;4.714;2023-03-01T06:42:03;7.85;;;6.75;;
8825;SDS011;4449;50.872;4.714;2023-03-01T06:44:31;10.65;;;6.80;;
8825;SDS011;4449;50.872;4.714;2023-03-01T06:46:59;14.48;;;7.47;;
8825;SDS011;4449;50.872;4.714;2023-03-01T06:49:27;9.75;;;7.13;;
8825;SDS011;4449;50.872;4.714;2023-03-01T06:51:55;8.68;;;6.15;;
8825;SDS011;4449;50.872;4.714;2023-03-01T06:54:23;8.82;;;7.13;;
8825;SDS011;4449;50.872;4.714;2023-03-01T06:56:51;10.50;;;7.25;;
8825;SDS011;4449;50.872;4.714;2023-03-01T06:59:21;8.95;;;6.65;;
8825;SDS011;4449;50.872;4.714;2023-03-01T07:01:48;10.50;;;6.95;;
8825;SDS011;4449;50.872;4.714;2023-03-01T07:04:15;11.55;;;7.22;;
8825;SDS011;4449;50.872;4.714;2023-03-01T07:06:43;12.50;;;7.30;;
8825;SDS011;4449;50.872;4.714;2023-03-01T07:09:11;11.52;;;6.82;;
8825;SDS011;4449;50.872;4.714;2023-03-01T07:11:39;12.63;;;6.93;;
8825;SDS011;4449;50.872;4.714;2023-03-01T07:14:07;7.75;;;6.63;;
8825;SDS011;4449;50.872;4.714;2023-03-01T07:16:36;13.30;;;7.68;;
8825;SDS011;4449;50.872;4.714;2023-03-01T07:19:04;12.18;;;7.32;;
8825;SDS011;4449;50.872;4.714;2023-03-01T07:21:32;10.98;;;7.05;;
8825;SDS011;4449;50.872;4.714;2023-03-01T07:24:00;11.88;;;6.82;;
8825;SDS011;4449;50.872;4.714;2023-03-01T07:26:27;8.40;;;6.47;;
8825;SDS011;4449;50.872;4.714;2023-03-01T07:28:55;10.82;;;7.63;;
8825;SDS011;4449;50.872;4.714;2023-03-01T07:31:26;8.35;;;6.90;;
8825;SDS011;4449;50.872;4.714;2023-03-01T07:33:55;9.25;;;6.90;;
8825;SDS011;4449;50.872;4.714;2023-03-01T07:36:23;13.27;;;7.07;;
8825;SDS011;4449;50.872;4.714;2023-03-01T07:38:51;8.35;;;7.25;;
8825;SDS011;4449;50.872;4.714;2023-03-01T07:41:21;9.18;;;6.95;;
8825;SDS011;4449;50.872;4.714;2023-03-01T07:43:49;18.50;;;7.82;;
8825;SDS011;4449;50.872;4.714;2023-03-01T07:46:16;11.07;;;6.88;;
8825;SDS011;4449;50.872;4.714;2023-03-01T07:48:44;8.60;;;7.18;;
8825;SDS011;4449;50.872;4.714;2023-03-01T07:51:13;8.60;;;6.88;;
8825;SDS011;4449;50.872;4.714;2023-03-01T07:53:41;9.68;;;7.10;;
8825;SDS011;4449;50.872;4.714;2023-03-01T07:56:10;12.27;;;8.57;;
8825;SDS011;4449;50.872;4.714;2023-03-01T07:58:39;10.65;;;7.82;;
8825;SDS011;4449;50.872;4.714;2023-03-01T08:01:07;10.60;;;7.40;;
8825;SDS011;4449;50.872;4.714;2023-03-01T08:03:36;15.30;;;7.25;;
8825;SDS011;4449;50.872;4.714;2023-03-01T08:06:05;16.92;;;7.88;;
8825;SDS011;4449;50.872;4.714;2023-03-01T08:08:34;12.55;;;8.07;;
8825;SDS011;4449;50.872;4.714;2023-03-01T08:11:02;9.82;;;7.75;;
8825;SDS011;4449;50.872;4.714;2023-03-01T08:13:31;9.90;;;7.00;;
8825;SDS011;4449;50.872;4.714;2023-03-01T08:16:00;16.23;;;8.18;;
8825;SDS011;4449;50.872;4.714;2023-03-01T08:18:28;14.73;;;7.88;;
8825;SDS011;4449;50.872;4.714;2023-03-01T08:21:00;8.52;;;7.13;;
8825;SDS011;4449;50.872;4.714;2023-03-01T08:23:28;10.50;;;6.45;;
8825;SDS011;4449;50.872;4.714;2023-03-01T08:26:07;10.52;;;8.70;;
8825;SDS011;4449;50.872;4.714;2023-03-01T08:28:35;12.20;;;8.40;;
8825;SDS011;4449;50.872;4.714;2023-03-01T08:31:03;10.43;;;7.68;;
8825;SDS011;4449;50.872;4.714;2023-03-01T08:33:30;9.77;;;7.47;;
8825;SDS011;4449;50.872;4.714;2023-03-01T08:36:02;12.77;;;7.40;;
8825;SDS011;4449;50.872;4.714;2023-03-01T08:38:30;12.55;;;7.95;;
8825;SDS011;4449;50.872;4.714;2023-03-01T08:40:59;9.07;;;7.53;;
8825;SDS011;4449;50.872;4.714;2023-03-01T08:43:28;12.85;;;7.75;;
8825;SDS011;4449;50.872;4.714;2023-03-01T08:45:56;12.02;;;7.68;;
8825;SDS011;4449;50.872;4.714;2023-03-01T08:48:24;9.63;;;7.75;;
8825;SDS011;4449;50.872;4.714;2023-03-01T08:50:52;11.73;;;8.38;;
8825;SDS011;4449;50.872;4.714;2023-03-01T08:53:19;11.20;;;8.05;;
8825;SDS011;4449;50.872;4.714;2023-03-01T08:55:47;12.87;;;7.83;;
8825;SDS011;4449;50.872;4.714;2023-03-01T08:58:15;14.02;;;9.57;;
8825;SDS011;4449;50.872;4.714;2023-03-01T09:00:44;21.23;;;8.33;;
8825;SDS011;4449;50.872;4.714;2023-03-01T09:03:12;12.07;;;8.52;;
8825;SDS011;4449;50.872;4.714;2023-03-01T09:05:40;10.50;;;7.97;;
8825;SDS011;4449;50.872;4.714;2023-03-01T09:08:07;9.97;;;7.40;;
8825;SDS011;4449;50.872;4.714;2023-03-01T09:10:37;14.13;;;8.03;;
8825;SDS011;4449;50.872;4.714;2023-03-01T09:13:05;12.20;;;8.20;;
8825;SDS011;4449;50.872;4.714;2023-03-01T09:15:33;12.77;;;8.17;;
8825;SDS011;4449;50.872;4.714;2023-03-01T09:18:03;9.23;;;8.00;;
8825;SDS011;4449;50.872;4.714;2023-03-01T09:20:31;13.33;;;7.47;;
8825;SDS011;4449;50.872;4.714;2023-03-01T09:22:59;10.73;;;8.17;;
8825;SDS011;4449;50.872;4.714;2023-03-01T09:25:27;12.20;;;8.33;;
8825;SDS011;4449;50.872;4.714;2023-03-01T09:27:55;12.27;;;7.57;;
8825;SDS011;4449;50.872;4.714;2023-03-01T09:30:23;8.53;;;7.23;;
8825;SDS011;4449;50.872;4.714;2023-03-01T09:32:51;15.60;;;8.20;;
8825;SDS011;4449;50.872;4.714;2023-03-01T09:35:20;9.57;;;6.63;;
8825;SDS011;4449;50.872;4.714;2023-03-01T09:37:49;18.33;;;8.23;;
8825;SDS011;4449;50.872;4.714;2023-03-01T09:40:18;11.93;;;7.97;;
8825;SDS011;4449;50.872;4.714;2023-03-01T10:41:54;8.30;;;7.30;;
8825;SDS011;4449;50.872;4.714;2023-03-01T10:44:41;11.63;;;9.37;;
8825;SDS011;4449;50.872;4.714;2023-03-01T10:47:14;16.03;;;9.43;;
8825;SDS011;4449;50.872;4.714;2023-03-01T10:49:51;9.20;;;7.87;;
8825;SDS011;4449;50.872;4.714;2023-03-01T10:52:20;14.63;;;9.07;;
8825;SDS011;4449;50.872;4.714;2023-03-01T10:54:51;10.80;;;8.30;;
8825;SDS011;4449;50.872;4.714;2023-03-01T10:57:37;9.83;;;7.70;;
8825;SDS011;4449;50.872;4.714;2023-03-01T11:00:17;8.83;;;7.47;;
8825;SDS011;4449;50.872;4.714;2023-03-01T11:02:47;9.67;;;8.30;;
8825;SDS011;4449;50.872;4.714;2023-03-01T11:05:22;10.87;;;7.50;;
8825;SDS011;4449;50.872;4.714;2023-03-01T11:07:51;14.53;;;8.00;;
8825;SDS011;4449;50.872;4.714;2023-03-01T11:10:20;11.57;;;8.00;;
8825;SDS011;4449;50.872;4.714;2023-03-01T11:12:49;11.77;;;7.90;;
8825;SDS011;4449;50.872;4.714;2023-03-01T11:15:22;11.63;;;7.63;;
8825;SDS011;4449;50.872;4.714;2023-03-01T11:17:50;12.43;;;8.13;;
8825;SDS011;4449;50.872;4.714;2023-03-01T11:20:22;13.37;;;8.00;;
8825;SDS011;4449;50.872;4.714;2023-03-01T11:22:52;8.37;;;7.57;;
8825;SDS011;4449;50.872;4.714;2023-03-01T11:25:21;13.07;;;8.27;;
8825;SDS011;4449;50.872;4.714;2023-03-01T11:27:52;10.70;;;7.80;;
8825;SDS011;4449;50.872;4.714;2023-03-01T11:30:21;10.50;;;7.63;;
8825;SDS011;4449;50.872;4.714;2023-03-01T11:32:50;12.20;;;7.70;;
8825;SDS011;4449;50.872;4.714;2023-03-01T11:35:21;10.87;;;7.27;;
8825;SDS011;4449;50.872;4.714;2023-03-01T11:37:54;7.97;;;7.17;;
8825;SDS011;4449;50.872;4.714;2023-03-01T11:40:24;11.83;;;7.23;;
8825;SDS011;4449;50.872;4.714;2023-03-01T11:42:59;8.20;;;6.80;;
8825;SDS011;4449;50.872;4.714;2023-03-01T11:45:31;13.57;;;7.90;;
8825;SDS011;4449;50.872;4.714;2023-03-01T11:48:06;9.50;;;6.90;;
8825;SDS011;4449;50.872;4.714;2023-03-01T11:50:35;10.30;;;7.77;;
8825;SDS011;4449;50.872;4.714;2023-03-01T11:55:53;11.83;;;6.90;;
8825;SDS011;4449;50.872;4.714;2023-03-01T11:58:29;9.43;;;7.40;;
8825;SDS011;4449;50.872;4.714;2023-03-01T12:01:03;9.23;;;7.27;;
8825;SDS011;4449;50.872;4.714;2023-03-01T12:03:39;9.73;;;7.37;;
8825;SDS011;4449;50.872;4.714;2023-03-01T12:06:20;9.37;;;7.33;;
8825;SDS011;4449;50.872;4.714;2023-03-01T12:08:51;10.87;;;7.50;;
8825;SDS011;4449;50.872;4.714;2023-03-01T12:11:23;10.00;;;7.53;;
8825;SDS011;4449;50.872;4.714;2023-03-01T12:14:09;9.57;;;8.07;;
8825;SDS011;4449;50.872;4.714;2023-03-01T12:16:47;9.17;;;7.47;;
8825;SDS011;4449;50.872;4.714;2023-03-01T12:19:33;12.30;;;7.23;;
8825;SDS011;4449;50.872;4.714;2023-03-01T12:22:05;9.03;;;7.40;;
8825;SDS011;4449;50.872;4.714;2023-03-01T12:24:46;10.07;;;6.87;;
8825;SDS011;4449;50.872;4.714;2023-03-01T12:27:28;12.53;;;8.03;;
8825;SDS011;4449;50.872;4.714;2023-03-01T12:30:05;9.97;;;7.40;;
8825;SDS011;4449;50.872;4.714;2023-03-01T12:32:43;9.33;;;6.73;;
8825;SDS011;4449;50.872;4.714;2023-03-01T12:38:08;9.67;;;7.30;;
8825;SDS011;4449;50.872;4.714;2023-03-01T12:40:56;9.43;;;8.13;;
8825;SDS011;4449;50.872;4.714;2023-03-01T12:43:29;14.87;;;7.93;;
8825;SDS011;4449;50.872;4.714;2023-03-01T12:48:50;11.70;;;8.33;;
8825;SDS011;4449;50.872;4.714;2023-03-01T12:51:20;11.00;;;7.43;;
8825;SDS011;4449;50.872;4.714;2023-03-01T12:53:50;12.20;;;7.77;;
8825;SDS011;4449;50.872;4.714;2023-03-01T12:56:19;11.63;;;7.93;;
8825;SDS011;4449;50.872;4.714;2023-03-01T12:58:51;10.20;;;7.37;;
8825;SDS011;4449;50.872;4.714;2023-03-01T13:01:26;9.43;;;6.97;;
8825;SDS011;4449;50.872;4.714;2023-03-01T13:04:05;9.17;;;7.90;;
8825;SDS011;4449;50.872;4.714;2023-03-01T13:06:38;11.63;;;7.77;;
8825;SDS011;4449;50.872;4.714;2023-03-01T13:09:10;9.13;;;7.60;;
8825;SDS011;4449;50.872;4.714;2023-03-01T13:11:40;8.73;;;7.23;;
8825;SDS011;4449;50.872;4.714;2023-03-01T13:16:51;9.13;;;6.87;;
8825;SDS011;4449;50.872;4.714;2023-03-01T13:19:21;10.23;;;7.57;;
8825;SDS011;4449;50.872;4.714;2023-03-01T13:21:50;8.43;;;7.03;;
8825;SDS011;4449;50.872;4.714;2023-03-01T13:24:29;9.60;;;7.43;;
8825;SDS011;4449;50.872;4.714;2023-03-01T13:29:48;9.23;;;7.73;;
8825;SDS011;4449;50.872;4.714;2023-03-01T13:32:20;9.10;;;7.43;;
8825;SDS011;4449;50.872;4.714;2023-03-01T13:34:53;9.50;;;7.20;;
8825;SDS011;4449;50.872;4.714;2023-03-01T13:37:28;8.83;;;7.10;;
8825;SDS011;4449;50.872;4.714;2023-03-01T13:40:00;9.97;;;7.80;;
8825;SDS011;4449;50.872;4.714;2023-03-01T13:42:34;10.03;;;6.97;;
8825;SDS011;4449;50.872;4.714;2023-03-01T13:45:04;11.63;;;7.40;;
8825;SDS011;4449;50.872;4.714;2023-03-01T13:47:32;8.37;;;6.53;;
8825;SDS011;4449;50.872;4.714;2023-03-01T13:50:03;13.50;;;6.90;;
8825;SDS011;4449;50.872;4.714;2023-03-01T13:52:36;7.60;;;6.80;;
8825;SDS011;4449;50.872;4.714;2023-03-01T13:55:06;7.80;;;6.70;;
8825;SDS011;4449;50.872;4.714;2023-03-01T13:57:43;13.33;;;7.00;;
8825;SDS011;4449;50.872;4.714;2023-03-01T14:00:24;9.27;;;7.00;;
8825;SDS011;4449;50.872;4.714;2023-03-01T14:02:59;9.93;;;7.17;;
8825;SDS011;4449;50.872;4.714;2023-03-01T14:05:29;10.20;;;7.80;;
8825;SDS011;4449;50.872;4.714;2023-03-01T14:07:57;9.57;;;7.10;;
8825;SDS011;4449;50.872;4.714;2023-03-01T14:10:25;9.10;;;7.20;;
8825;SDS011;4449;50.872;4.714;2023-03-01T14:13:00;8.27;;;6.83;;
8825;SDS011;4449;50.872;4.714;2023-03-01T14:15:30;7.93;;;7.13;;
8825;SDS011;4449;50.872;4.714;2023-03-01T14:18:00;6.83;;;6.20;;
8825;SDS011;4449;50.872;4.714;2023-03-01T14:20:31;9.93;;;7.23;;
8825;SDS011;4449;50.872;4.714;2023-03-01T14:23:01;7.87;;;7.07;;
8825;SDS011;4449;50.872;4.714;2023-03-01T14:25:31;8.50;;;6.50;;
8825;SDS011;4449;50.872;4.714;2023-03-01T14:28:03;11.73;;;6.70;;
8825;SDS011;4449;50.872;4.714;2023-03-01T14:30:32;7.80;;;6.93;;
8825;SDS011;4449;50.872;4.714;2023-03-01T14:33:01;8.37;;;7.00;;
8825;SDS011;4449;50.872;4.714;2023-03-01T14:35:33;8.63;;;6.63;;
8825;SDS011;4449;50.872;4.714;2023-03-01T14:38:01;14.10;;;6.77;;
8825;SDS011;4449;50.872;4.714;2023-03-01T14:40:30;9.63;;;6.87;;
8825;SDS011;4449;50.872;4.714;2023-03-01T14:43:00;7.83;;;6.23;;
8825;SDS011;4449;50.872;4.714;2023-03-01T14:45:29;9.53;;;6.40;;
8825;SDS011;4449;50.872;4.714;2023-03-01T14:47:58;12.07;;;6.47;;
8825;SDS011;4449;50.872;4.714;2023-03-01T14:50:28;8.17;;;5.67;;
8825;SDS011;4449;50.872;4.714;2023-03-01T14:52:58;6.53;;;5.93;;
8825;SDS011;4449;50.872;4.714;2023-03-01T14:55:27;7.93;;;6.10;;
8825;SDS011;4449;50.872;4.714;2023-03-01T14:57:57;7.00;;;6.03;;
8825;SDS011;4449;50.872;4.714;2023-03-01T15:00:26;9.10;;;6.50;;
8825;SDS011;4449;50.872;4.714;2023-03-01T15:02:55;9.10;;;5.53;;
8825;SDS011;4449;50.872;4.714;2023-03-01T15:05:25;7.07;;;5.80;;
8825;SDS011;4449;50.872;4.714;2023-03-01T15:07:55;5.67;;;5.17;;
8825;SDS011;4449;50.872;4.714;2023-03-01T15:10:26;7.23;;;5.53;;
8825;SDS011;4449;50.872;4.714;2023-03-01T15:12:54;6.43;;;5.87;;
8825;SDS011;4449;50.872;4.714;2023-03-01T15:15:30;8.03;;;6.23;;
8825;SDS011;4449;50.872;4.714;2023-03-01T15:17:58;9.17;;;6.60;;
8825;SDS011;4449;50.872;4.714;2023-03-01T15:20:27;7.37;;;6.20;;
8825;SDS011;4449;50.872;4.714;2023-03-01T15:22:56;10.33;;;5.73;;
8825;SDS011;4449;50.872;4.714;2023-03-01T15:25:26;10.20;;;6.10;;
8825;SDS011;4449;50.872;4.714;2023-03-01T15:27:55;9.57;;;6.13;;
8825;SDS011;4449;50.872;4.714;2023-03-01T15:30:25;7.97;;;5.73;;
8825;SDS011;4449;50.872;4.714;2023-03-01T15:35:45;5.90;;;5.03;;
8825;SDS011;4449;50.872;4.714;2023-03-01T15:41:23;6.73;;;5.97;;
8825;SDS011;4449;50.872;4.714;2023-03-01T15:43:51;8.67;;;6.57;;
8825;SDS011;4449;50.872;4.714;2023-03-01T15:46:22;7.03;;;5.80;;
8825;SDS011;4449;50.872;4.714;2023-03-01T15:48:52;6.90;;;6.20;;
8825;SDS011;4449;50.872;4.714;2023-03-01T15:51:29;6.37;;;5.63;;
8825;SDS011;4449;50.872;4.714;2023-03-01T15:53:58;9.03;;;6.70;;
8825;SDS011;4449;50.872;4.714;2023-03-01T15:56:28;7.13;;;5.77;;
8825;SDS011;4449;50.872;4.714;2023-03-01T15:58:59;8.10;;;6.20;;
8825;SDS011;4449;50.872;4.714;2023-03-01T16:01:27;6.83;;;5.77;;
8825;SDS011;4449;50.872;4.714;2023-03-01T16:03:56;7.73;;;5.87;;
8825;SDS011;4449;50.872;4.714;2023-03-01T16:06:24;12.10;;;6.00;;
8825;SDS011;4449;50.872;4.714;2023-03-01T16:08:52;10.57;;;5.63;;
8825;SDS011;4449;50.872;4.714;2023-03-01T16:11:20;8.10;;;5.60;;
8825;SDS011;4449;50.872;4.714;2023-03-01T16:13:50;6.80;;;5.20;;
8825;SDS011;4449;50.872;4.714;2023-03-01T16:16:18;6.03;;;5.27;;
8825;SDS011;4449;50.872;4.714;2023-03-01T16:18:46;7.90;;;5.67;;
8825;SDS011;4449;50.872;4.714;2023-03-01T16:21:15;7.10;;;5.23;;
8825;SDS011;4449;50.872;4.714;2023-03-01T16:23:43;7.47;;;5.83;;
8825;SDS011;4449;50.872;4.714;2023-03-01T16:26:12;5.93;;;5.03;;
8825;SDS011;4449;50.872;4.714;2023-03-01T16:28:40;8.83;;;6.43;;
8825;SDS011;4449;50.872;4.714;2023-03-01T16:31:09;6.87;;;5.97;;
8825;SDS011;4449;50.872;4.714;2023-03-01T16:33:37;6.83;;;5.53;;
8825;SDS011;4449;50.872;4.714;2023-03-01T16:36:06;9.33;;;6.23;;
8825;SDS011;4449;50.872;4.714;2023-03-01T16:38:34;9.70;;;5.30;;
8825;SDS011;4449;50.872;4.714;2023-03-01T16:41:03;6.37;;;5.47;;
8825;SDS011;4449;50.872;4.714;2023-03-01T16:43:30;6.37;;;5.17;;
8825;SDS011;4449;50.872;4.714;2023-03-01T16:45:58;8.23;;;5.53;;